createdAt,value
2019-01-02T00:02:11.113Z,18.10
2019-01-02T00:07:14.546Z,16.67
2019-01-02T00:12:17.992Z,32.13
2019-01-02T00:17:21.429Z,24.63
2019-01-02T00:22:24.877Z,16.93
2019-01-02T00:27:28.399Z,25.27
2019-01-02T00:32:31.845Z,14.27
2019-01-02T00:37:35.279Z,19.13
2019-01-02T00:42:38.723Z,23.30
2019-01-02T00:47:42.172Z,26.37
2019-01-02T00:52:45.590Z,15.97
2019-01-02T00:57:49.015Z,20.30
2019-01-02T01:02:52.457Z,18.70
2019-01-02T01:07:55.885Z,21.47
2019-01-02T01:12:59.314Z,13.07
2019-01-02T01:18:02.755Z,15.77
2019-01-02T01:23:06.442Z,18.63
2019-01-02T01:28:10.246Z,19.70
2019-01-02T01:33:13.660Z,16.67
2019-01-02T01:38:17.096Z,23.60
2019-01-02T01:43:20.905Z,19.93
2019-01-02T01:48:24.332Z,15.27
2019-01-02T01:53:27.769Z,23.03
2019-01-02T01:58:31.197Z,19.47
2019-01-02T02:03:35.095Z,16.50
2019-01-02T02:08:38.533Z,16.70
2019-01-02T02:13:41.985Z,20.43
2019-01-02T02:18:45.776Z,21.77
2019-01-02T02:23:49.199Z,21.50
2019-01-02T02:28:52.628Z,21.73
2019-01-02T02:33:56.079Z,22.17
2019-01-02T02:38:59.975Z,24.83
2019-01-02T02:44:03.783Z,21.80
2019-01-02T02:49:07.670Z,18.13
2019-01-02T02:54:11.486Z,16.50
2019-01-02T02:59:15.317Z,17.33
2019-01-02T03:04:19.118Z,20.67
2019-01-02T03:09:22.925Z,13.70
2019-01-02T03:14:26.409Z,21.73
2019-01-02T03:19:30.221Z,18.17
2019-01-02T03:24:34.020Z,35.63
2019-01-02T03:29:37.815Z,22.67
2019-01-02T03:34:41.557Z,10.63
2019-01-02T03:39:44.975Z,19.77
2019-01-02T03:44:48.386Z,18.17
2019-01-02T03:49:51.825Z,17.00
2019-01-02T03:54:55.266Z,29.03
2019-01-02T03:59:58.703Z,22.37
2019-01-02T04:05:02.134Z,25.57
2019-01-02T04:10:08.603Z,24.93
2019-01-02T04:15:12.038Z,20.93
2019-01-02T04:20:15.470Z,29.60
2019-01-02T04:25:18.907Z,22.17
2019-01-02T04:30:22.369Z,16.53
2019-01-02T04:35:25.792Z,8.43
2019-01-02T04:40:29.225Z,13.87
2019-01-02T04:45:32.663Z,10.00
2019-01-02T04:50:36.092Z,8.90
2019-01-02T04:55:39.536Z,18.73
2019-01-02T05:00:42.967Z,23.83
2019-01-02T05:05:46.421Z,20.83
2019-01-02T05:10:49.872Z,26.57
2019-01-02T05:15:53.274Z,28.10
2019-01-02T05:20:56.716Z,29.57
2019-01-02T05:26:00.156Z,27.83
2019-01-02T05:31:03.600Z,32.93
2019-01-02T05:36:07.033Z,38.67
2019-01-02T05:41:10.471Z,29.13
2019-01-02T05:46:13.900Z,30.43
2019-01-02T05:51:17.321Z,26.77
2019-01-02T05:56:20.932Z,17.70
2019-01-02T06:01:24.392Z,28.53
2019-01-02T06:06:27.793Z,30.10
2019-01-02T06:11:31.230Z,27.13
2019-01-02T06:16:34.686Z,28.70
2019-01-02T06:21:38.111Z,27.07
2019-01-02T06:26:41.539Z,20.90
2019-01-02T06:31:44.966Z,29.23
2019-01-02T06:36:48.388Z,28.00
2019-01-02T06:41:51.870Z,26.60
2019-01-02T06:46:55.326Z,25.40
2019-01-02T06:51:58.770Z,24.27
2019-01-02T06:57:02.184Z,27.40
2019-01-02T07:02:05.617Z,30.73
2019-01-02T07:07:09.080Z,27.60
2019-01-02T07:12:12.513Z,20.57
2019-01-02T07:17:15.934Z,23.70
2019-01-02T07:22:19.357Z,27.47
2019-01-02T07:27:22.785Z,19.20
2019-01-02T07:32:26.233Z,24.73
2019-01-02T07:37:49.539Z,21.47
2019-01-02T07:43:05.229Z,18.10
2019-01-02T07:48:31.026Z,23.17
2019-01-02T07:53:58.824Z,21.87
2019-01-02T07:59:17.464Z,20.27
2019-01-02T08:04:36.172Z,13.93
2019-01-02T08:09:45.237Z,16.63
2019-01-02T08:14:51.705Z,26.07
2019-01-02T08:20:22.143Z,14.73
2019-01-02T08:25:28.617Z,19.83
2019-01-02T08:30:53.280Z,21.63
2019-01-02T08:36:02.522Z,22.27
2019-01-02T08:41:11.769Z,22.13
2019-01-02T08:46:39.146Z,17.73
2019-01-02T08:51:48.362Z,20.73
2019-01-02T08:57:09.830Z,24.00
2019-01-02T09:02:31.305Z,33.23
2019-01-02T09:07:43.974Z,14.37
2019-01-02T09:13:07.116Z,24.27
2019-01-02T09:18:41.022Z,29.83
2019-01-02T09:24:02.711Z,26.13
2019-01-02T09:29:23.788Z,25.77
2019-01-02T09:34:54.084Z,26.83
2019-01-02T09:40:03.508Z,18.90
2019-01-02T09:45:43.703Z,18.37
2019-01-02T09:51:21.950Z,24.33
2019-01-02T09:56:33.955Z,19.33
2019-01-02T10:01:49.398Z,20.53
2019-01-02T10:06:55.860Z,12.87
2019-01-02T10:12:29.149Z,12.90
2019-01-02T10:17:38.566Z,14.03
2019-01-02T10:23:04.679Z,31.90
2019-01-02T10:28:20.053Z,20.37
2019-01-02T10:33:41.403Z,11.97
2019-01-02T10:38:50.382Z,26.70
2019-01-02T10:44:14.853Z,23.60
2019-01-02T10:49:21.364Z,13.60
2019-01-02T10:54:45.506Z,10.57
2019-01-02T11:00:16.293Z,7.40
2019-01-02T11:05:31.682Z,12.57
2019-01-02T11:10:46.840Z,11.43
2019-01-02T11:15:53.328Z,9.20
2019-01-02T11:21:17.902Z,8.13
2019-01-02T11:26:52.969Z,4.07
2019-01-02T11:32:32.458Z,10.37
2019-01-02T11:37:42.247Z,4.73
2019-01-02T11:42:57.580Z,12.87
2019-01-02T11:48:00.989Z,8.90
2019-01-02T11:53:04.431Z,7.60
2019-01-02T11:58:07.855Z,6.97
2019-01-02T12:03:11.317Z,7.40
2019-01-02T18:52:12.455Z,13.23
2019-01-02T18:57:21.687Z,18.43
2019-01-02T19:02:32.667Z,20.67
2019-01-02T19:07:58.320Z,23.77
2019-01-02T19:13:03.540Z,23.57
2019-01-02T19:18:10.287Z,30.97
2019-01-02T19:23:15.673Z,25.90
2019-01-02T19:28:19.150Z,17.30
2019-01-02T19:33:22.613Z,23.33
2019-01-02T19:38:26.051Z,19.87
2019-01-02T19:43:29.512Z,20.73
2019-01-02T19:48:32.960Z,15.10
2019-01-02T19:53:36.562Z,20.00
2019-01-02T19:58:40.043Z,19.23
2019-01-02T20:03:45.134Z,15.10
2019-01-02T20:08:48.595Z,20.57
2019-01-02T20:13:52.035Z,14.60
2019-01-02T20:18:55.540Z,16.13
2019-01-02T20:24:00.780Z,36.37
2019-01-02T20:29:04.237Z,19.73
2019-01-02T20:34:07.637Z,30.87
2019-01-02T20:39:11.084Z,21.00
2019-01-02T20:44:14.468Z,22.87
2019-01-02T20:49:17.906Z,23.07
2019-01-02T20:54:21.328Z,17.13
2019-01-02T20:59:24.755Z,19.60
2019-01-02T21:04:28.162Z,12.43
2019-01-02T21:09:31.591Z,15.87
2019-01-02T21:14:35.005Z,12.27
2019-01-02T21:19:38.435Z,10.50
2019-01-02T21:24:41.869Z,11.90
2019-01-02T21:29:45.339Z,10.63
2019-01-02T21:34:48.763Z,19.60
2019-01-02T21:39:52.190Z,12.90
2019-01-02T21:44:55.614Z,17.17
2019-01-02T21:49:59.154Z,10.43
2019-01-02T21:55:02.640Z,9.60
2019-01-02T22:00:09.614Z,12.70
2019-01-02T22:05:13.492Z,9.07
2019-01-02T22:10:16.948Z,7.37
2019-01-02T22:15:20.351Z,11.00
2019-01-02T22:20:23.772Z,7.67
2019-01-02T22:25:27.257Z,12.73
2019-01-02T22:30:32.243Z,9.87
2019-01-02T22:35:35.671Z,6.97
2019-01-02T22:40:39.119Z,7.73
2019-01-02T22:45:42.541Z,5.63
2019-01-02T22:50:46.019Z,9.87
2019-01-02T22:55:49.454Z,8.80
2019-01-02T23:01:04.393Z,11.40
2019-01-02T23:06:25.752Z,13.80
2019-01-02T23:11:39.830Z,11.03
2019-01-02T23:17:00.369Z,9.93
2019-01-02T23:22:05.457Z,10.07
2019-01-02T23:27:25.870Z,11.43
2019-01-02T23:32:33.960Z,8.70
2019-01-02T23:37:55.178Z,9.40
2019-01-02T23:43:18.139Z,12.53
2019-01-02T23:48:28.964Z,10.33
2019-01-02T23:53:34.019Z,8.57
2019-01-02T23:58:57.175Z,6.10
